sensor_id;sensor_type;location;lat;lon;timestamp;temperature;humidity
16970;DHT22;8601;48.718;8.992;2022-10-31T00:01:48;11.70;99.90
16970;DHT22;8601;48.718;8.992;2022-10-31T00:04:15;11.80;99.90
16970;DHT22;8601;48.718;8.992;2022-10-31T00:06:43;11.80;99.90
16970;DHT22;8601;48.718;8.992;2022-10-31T00:09:10;11.70;99.90
16970;DHT22;8601;48.718;8.992;2022-10-31T00:11:37;11.80;99.90
16970;DHT22;8601;48.718;8.992;2022-10-31T00:14:04;11.80;99.90
16970;DHT22;8601;48.718;8.992;2022-10-31T00:16:31;11.80;99.90
16970;DHT22;8601;48.718;8.992;2022-10-31T00:19:00;11.90;99.90
16970;DHT22;8601;48.718;8.992;2022-10-31T00:21:28;11.70;99.90
16970;DHT22;8601;48.718;8.992;2022-10-31T00:23:56;11.80;99.90
16970;DHT22;8601;48.718;8.992;2022-10-31T00:26:23;11.80;99.90
16970;DHT22;8601;48.718;8.992;2022-10-31T00:28:50;11.80;99.90
16970;DHT22;8601;48.718;8.992;2022-10-31T00:31:17;11.80;99.90
16970;DHT22;8601;48.718;8.992;2022-10-31T00:33:44;11.80;99.90
16970;DHT22;8601;48.718;8.992;2022-10-31T00:36:13;11.70;99.90
16970;DHT22;8601;48.718;8.992;2022-10-31T00:38:40;11.70;99.90
16970;DHT22;8601;48.718;8.992;2022-10-31T00:41:09;11.70;99.90
16970;DHT22;8601;48.718;8.992;2022-10-31T00:43:36;11.70;99.90
16970;DHT22;8601;48.718;8.992;2022-10-31T00:46:03;11.70;99.90
16970;DHT22;8601;48.718;8.992;2022-10-31T00:48:31;11.60;99.90
16970;DHT22;8601;48.718;8.992;2022-10-31T00:50:58;11.50;99.90
16970;DHT22;8601;48.718;8.992;2022-10-31T00:53:25;11.40;99.90
16970;DHT22;8601;48.718;8.992;2022-10-31T00:55:52;11.40;99.90
16970;DHT22;8601;48.718;8.992;2022-10-31T00:58:21;11.40;99.90
16970;DHT22;8601;48.718;8.992;2022-10-31T01:00:50;11.40;99.90
16970;DHT22;8601;48.718;8.992;2022-10-31T01:03:21;11.50;99.90
16970;DHT22;8601;48.718;8.992;2022-10-31T01:05:56;11.50;99.90
16970;DHT22;8601;48.718;8.992;2022-10-31T01:08:23;11.40;99.90
16970;DHT22;8601;48.718;8.992;2022-10-31T01:11:01;11.60;99.90
16970;DHT22;8601;48.718;8.992;2022-10-31T01:13:31;11.60;99.90
16970;DHT22;8601;48.718;8.992;2022-10-31T01:15:59;11.50;99.90
16970;DHT22;8601;48.718;8.992;2022-10-31T01:18:42;11.40;99.90
16970;DHT22;8601;48.718;8.992;2022-10-31T01:21:11;11.40;99.90
16970;DHT22;8601;48.718;8.992;2022-10-31T01:23:39;11.40;99.90
16970;DHT22;8601;48.718;8.992;2022-10-31T01:26:09;11.40;99.90
16970;DHT22;8601;48.718;8.992;2022-10-31T01:28:39;11.40;99.90
16970;DHT22;8601;48.718;8.992;2022-10-31T01:31:09;11.40;99.90
16970;DHT22;8601;48.718;8.992;2022-10-31T01:33:36;11.40;99.90
16970;DHT22;8601;48.718;8.992;2022-10-31T01:36:12;11.40;99.90
16970;DHT22;8601;48.718;8.992;2022-10-31T01:38:39;11.40;99.90
16970;DHT22;8601;48.718;8.992;2022-10-31T01:41:06;11.40;99.90
16970;DHT22;8601;48.718;8.992;2022-10-31T01:43:49;11.30;99.90
16970;DHT22;8601;48.718;8.992;2022-10-31T01:46:19;11.30;99.90
16970;DHT22;8601;48.718;8.992;2022-10-31T01:48:47;11.30;99.90
16970;DHT22;8601;48.718;8.992;2022-10-31T01:51:17;11.30;99.90
16970;DHT22;8601;48.718;8.992;2022-10-31T01:53:45;11.30;99.90
16970;DHT22;8601;48.718;8.992;2022-10-31T01:56:13;11.20;99.90
16970;DHT22;8601;48.718;8.992;2022-10-31T01:58:42;11.00;99.90
16970;DHT22;8601;48.718;8.992;2022-10-31T02:01:10;10.90;99.90
16970;DHT22;8601;48.718;8.992;2022-10-31T02:03:38;10.90;99.90
16970;DHT22;8601;48.718;8.992;2022-10-31T02:06:08;11.00;99.90
16970;DHT22;8601;48.718;8.992;2022-10-31T02:08:39;11.00;99.90
16970;DHT22;8601;48.718;8.992;2022-10-31T02:11:34;11.10;99.90
16970;DHT22;8601;48.718;8.992;2022-10-31T02:14:02;11.10;99.90
16970;DHT22;8601;48.718;8.992;2022-10-31T02:16:31;11.10;99.90
16970;DHT22;8601;48.718;8.992;2022-10-31T02:18:58;11.10;99.90
16970;DHT22;8601;48.718;8.992;2022-10-31T02:21:29;11.00;99.90
16970;DHT22;8601;48.718;8.992;2022-10-31T02:27:42;10.90;99.90
16970;DHT22;8601;48.718;8.992;2022-10-31T02:30:16;10.90;99.90
16970;DHT22;8601;48.718;8.992;2022-10-31T02:33:15;10.90;99.90
16970;DHT22;8601;48.718;8.992;2022-10-31T02:35:55;10.90;99.90
16970;DHT22;8601;48.718;8.992;2022-10-31T02:38:37;10.90;99.90
16970;DHT22;8601;48.718;8.992;2022-10-31T02:41:09;10.90;99.90
16970;DHT22;8601;48.718;8.992;2022-10-31T02:43:43;10.90;99.90
16970;DHT22;8601;48.718;8.992;2022-10-31T02:46:25;10.90;99.90
16970;DHT22;8601;48.718;8.992;2022-10-31T02:49:01;10.90;99.90
16970;DHT22;8601;48.718;8.992;2022-10-31T02:51:30;10.80;99.90
16970;DHT22;8601;48.718;8.992;2022-10-31T02:53:57;10.80;99.90
16970;DHT22;8601;48.718;8.992;2022-10-31T02:56:24;10.70;99.90
16970;DHT22;8601;48.718;8.992;2022-10-31T02:58:54;10.60;99.90
16970;DHT22;8601;48.718;8.992;2022-10-31T03:01:40;10.50;99.90
16970;DHT22;8601;48.718;8.992;2022-10-31T03:07:08;10.50;99.90
16970;DHT22;8601;48.718;8.992;2022-10-31T03:09:56;10.50;99.90
16970;DHT22;8601;48.718;8.992;2022-10-31T03:12:29;10.60;99.90
16970;DHT22;8601;48.718;8.992;2022-10-31T03:15:06;10.70;99.90
16970;DHT22;8601;48.718;8.992;2022-10-31T03:17:37;10.70;99.90
16970;DHT22;8601;48.718;8.992;2022-10-31T03:20:08;10.70;99.90
16970;DHT22;8601;48.718;8.992;2022-10-31T03:22:42;10.70;99.90
16970;DHT22;8601;48.718;8.992;2022-10-31T03:25:09;10.70;99.90
16970;DHT22;8601;48.718;8.992;2022-10-31T03:27:39;10.70;99.90
16970;DHT22;8601;48.718;8.992;2022-10-31T03:30:09;10.70;99.90
16970;DHT22;8601;48.718;8.992;2022-10-31T03:32:39;10.70;99.90
16970;DHT22;8601;48.718;8.992;2022-10-31T03:35:10;10.70;99.90
16970;DHT22;8601;48.718;8.992;2022-10-31T03:37:40;10.60;99.90
16970;DHT22;8601;48.718;8.992;2022-10-31T03:40:10;10.50;99.90
16970;DHT22;8601;48.718;8.992;2022-10-31T03:42:40;10.30;99.90
16970;DHT22;8601;48.718;8.992;2022-10-31T03:45:11;10.40;99.90
16970;DHT22;8601;48.718;8.992;2022-10-31T03:47:40;10.40;99.90
16970;DHT22;8601;48.718;8.992;2022-10-31T03:50:11;10.40;99.90
16970;DHT22;8601;48.718;8.992;2022-10-31T03:52:42;10.40;99.90
16970;DHT22;8601;48.718;8.992;2022-10-31T03:55:17;10.40;99.90
16970;DHT22;8601;48.718;8.992;2022-10-31T03:57:50;10.50;99.90
16970;DHT22;8601;48.718;8.992;2022-10-31T04:00:18;10.50;99.90
16970;DHT22;8601;48.718;8.992;2022-10-31T04:02:49;10.40;99.90
16970;DHT22;8601;48.718;8.992;2022-10-31T04:05:20;10.50;99.90
16970;DHT22;8601;48.718;8.992;2022-10-31T04:07:50;10.50;99.90
16970;DHT22;8601;48.718;8.992;2022-10-31T04:10:30;10.40;99.90
16970;DHT22;8601;48.718;8.992;2022-10-31T04:13:01;10.30;99.90
16970;DHT22;8601;48.718;8.992;2022-10-31T04:15:36;10.30;99.90
16970;DHT22;8601;48.718;8.992;2022-10-31T04:18:04;10.30;99.90
16970;DHT22;8601;48.718;8.992;2022-10-31T04:20:35;10.30;99.90
16970;DHT22;8601;48.718;8.992;2022-10-31T04:23:03;10.30;99.90
16970;DHT22;8601;48.718;8.992;2022-10-31T04:25:30;10.40;99.90
16970;DHT22;8601;48.718;8.992;2022-10-31T04:28:16;10.20;99.90
16970;DHT22;8601;48.718;8.992;2022-10-31T04:30:42;10.20;99.90
16970;DHT22;8601;48.718;8.992;2022-10-31T04:33:10;10.10;99.90
16970;DHT22;8601;48.718;8.992;2022-10-31T04:35:39;10.00;99.90
16970;DHT22;8601;48.718;8.992;2022-10-31T04:38:06;10.10;99.90
16970;DHT22;8601;48.718;8.992;2022-10-31T04:40:33;10.20;99.90
16970;DHT22;8601;48.718;8.992;2022-10-31T04:43:02;10.20;99.90
16970;DHT22;8601;48.718;8.992;2022-10-31T04:45:29;10.10;99.90
16970;DHT22;8601;48.718;8.992;2022-10-31T04:47:56;10.10;99.90
16970;DHT22;8601;48.718;8.992;2022-10-31T04:50:23;10.10;99.90
16970;DHT22;8601;48.718;8.992;2022-10-31T04:53:27;10.20;99.90
16970;DHT22;8601;48.718;8.992;2022-10-31T04:55:54;10.20;99.90
16970;DHT22;8601;48.718;8.992;2022-10-31T04:58:21;10.20;99.90
16970;DHT22;8601;48.718;8.992;2022-10-31T05:00:51;10.20;99.90
16970;DHT22;8601;48.718;8.992;2022-10-31T05:03:18;10.10;99.90
16970;DHT22;8601;48.718;8.992;2022-10-31T05:05:45;10.10;99.90
16970;DHT22;8601;48.718;8.992;2022-10-31T05:08:12;10.00;99.90
16970;DHT22;8601;48.718;8.992;2022-10-31T05:10:46;10.00;99.90
16970;DHT22;8601;48.718;8.992;2022-10-31T05:13:13;10.00;99.90
16970;DHT22;8601;48.718;8.992;2022-10-31T05:15:41;10.00;99.90
16970;DHT22;8601;48.718;8.992;2022-10-31T05:18:08;9.90;99.90
16970;DHT22;8601;48.718;8.992;2022-10-31T05:20:58;9.80;99.90
16970;DHT22;8601;48.718;8.992;2022-10-31T05:23:25;9.70;99.90
16970;DHT22;8601;48.718;8.992;2022-10-31T05:26:00;9.70;99.90
16970;DHT22;8601;48.718;8.992;2022-10-31T05:28:27;9.70;99.90
16970;DHT22;8601;48.718;8.992;2022-10-31T05:30:54;9.80;99.90
16970;DHT22;8601;48.718;8.992;2022-10-31T05:33:20;9.80;99.90
16970;DHT22;8601;48.718;8.992;2022-10-31T05:35:59;9.70;99.90
16970;DHT22;8601;48.718;8.992;2022-10-31T05:38:26;9.70;99.90
16970;DHT22;8601;48.718;8.992;2022-10-31T05:40:54;9.80;99.90
16970;DHT22;8601;48.718;8.992;2022-10-31T05:43:24;9.80;99.90
16970;DHT22;8601;48.718;8.992;2022-10-31T05:45:52;9.70;99.90
16970;DHT22;8601;48.718;8.992;2022-10-31T05:48:19;9.70;99.90
16970;DHT22;8601;48.718;8.992;2022-10-31T05:50:47;9.70;99.90
16970;DHT22;8601;48.718;8.992;2022-10-31T05:53:15;9.70;99.90
16970;DHT22;8601;48.718;8.992;2022-10-31T05:55:42;9.70;99.90
16970;DHT22;8601;48.718;8.992;2022-10-31T05:58:19;9.70;99.90
16970;DHT22;8601;48.718;8.992;2022-10-31T06:00:47;9.80;99.90
16970;DHT22;8601;48.718;8.992;2022-10-31T06:03:14;9.70;99.90
16970;DHT22;8601;48.718;8.992;2022-10-31T06:05:53;9.70;99.90
16970;DHT22;8601;48.718;8.992;2022-10-31T06:08:20;9.80;99.90
16970;DHT22;8601;48.718;8.992;2022-10-31T06:10:47;9.80;99.90
16970;DHT22;8601;48.718;8.992;2022-10-31T06:13:14;9.80;99.90
16970;DHT22;8601;48.718;8.992;2022-10-31T06:15:41;9.90;99.90
16970;DHT22;8601;48.718;8.992;2022-10-31T06:18:09;9.90;99.90
16970;DHT22;8601;48.718;8.992;2022-10-31T06:20:36;9.90;99.90
16970;DHT22;8601;48.718;8.992;2022-10-31T06:23:03;9.90;99.90
16970;DHT22;8601;48.718;8.992;2022-10-31T06:25:30;10.10;99.90
16970;DHT22;8601;48.718;8.992;2022-10-31T06:27:58;9.80;99.90
16970;DHT22;8601;48.718;8.992;2022-10-31T06:30:25;9.80;99.90
16970;DHT22;8601;48.718;8.992;2022-10-31T06:32:52;9.80;99.90
16970;DHT22;8601;48.718;8.992;2022-10-31T06:35:21;9.60;99.90
16970;DHT22;8601;48.718;8.992;2022-10-31T06:37:51;9.60;99.90
16970;DHT22;8601;48.718;8.992;2022-10-31T06:40:19;9.70;99.90
16970;DHT22;8601;48.718;8.992;2022-10-31T06:42:46;9.80;99.90
16970;DHT22;8601;48.718;8.992;2022-10-31T06:45:13;9.90;99.90
16970;DHT22;8601;48.718;8.992;2022-10-31T06:47:40;9.90;99.90
16970;DHT22;8601;48.718;8.992;2022-10-31T06:50:07;10.00;99.90
16970;DHT22;8601;48.718;8.992;2022-10-31T06:52:36;10.10;99.90
16970;DHT22;8601;48.718;8.992;2022-10-31T06:55:03;10.10;99.90
16970;DHT22;8601;48.718;8.992;2022-10-31T06:57:30;10.10;99.90
16970;DHT22;8601;48.718;8.992;2022-10-31T06:59:57;10.00;99.90
16970;DHT22;8601;48.718;8.992;2022-10-31T07:02:35;9.90;99.90
16970;DHT22;8601;48.718;8.992;2022-10-31T07:05:01;9.90;99.90
16970;DHT22;8601;48.718;8.992;2022-10-31T07:07:29;9.90;99.90
16970;DHT22;8601;48.718;8.992;2022-10-31T07:09:57;10.00;99.90
16970;DHT22;8601;48.718;8.992;2022-10-31T07:12:29;10.10;99.90
16970;DHT22;8601;48.718;8.992;2022-10-31T07:14:55;10.10;99.90
16970;DHT22;8601;48.718;8.992;2022-10-31T07:17:23;10.20;99.90
16970;DHT22;8601;48.718;8.992;2022-10-31T07:19:50;10.20;99.90
16970;DHT22;8601;48.718;8.992;2022-10-31T07:22:17;10.30;99.90
16970;DHT22;8601;48.718;8.992;2022-10-31T07:24:44;10.20;99.90
16970;DHT22;8601;48.718;8.992;2022-10-31T07:27:13;10.20;99.90
16970;DHT22;8601;48.718;8.992;2022-10-31T07:29:40;10.30;99.90
16970;DHT22;8601;48.718;8.992;2022-10-31T07:32:07;11.20;99.90
16970;DHT22;8601;48.718;8.992;2022-10-31T07:34:34;11.00;99.90
16970;DHT22;8601;48.718;8.992;2022-10-31T07:37:00;10.90;99.90
16970;DHT22;8601;48.718;8.992;2022-10-31T07:39:27;10.90;99.90
16970;DHT22;8601;48.718;8.992;2022-10-31T07:41:54;10.70;99.90
16970;DHT22;8601;48.718;8.992;2022-10-31T07:47:43;10.70;99.90
16970;DHT22;8601;48.718;8.992;2022-10-31T07:50:12;10.70;99.90
16970;DHT22;8601;48.718;8.992;2022-10-31T07:52:39;10.70;99.90
16970;DHT22;8601;48.718;8.992;2022-10-31T07:55:07;10.80;99.90
16970;DHT22;8601;48.718;8.992;2022-10-31T07:57:34;10.80;99.90
16970;DHT22;8601;48.718;8.992;2022-10-31T08:00:03;10.90;99.90
16970;DHT22;8601;48.718;8.992;2022-10-31T08:02:30;11.00;99.90
16970;DHT22;8601;48.718;8.992;2022-10-31T08:04:59;11.00;99.90
16970;DHT22;8601;48.718;8.992;2022-10-31T08:07:27;11.10;99.90
16970;DHT22;8601;48.718;8.992;2022-10-31T08:09:55;11.10;99.90
16970;DHT22;8601;48.718;8.992;2022-10-31T08:12:22;11.10;99.90
16970;DHT22;8601;48.718;8.992;2022-10-31T08:14:49;11.20;99.90
16970;DHT22;8601;48.718;8.992;2022-10-31T08:17:16;11.30;99.90
16970;DHT22;8601;48.718;8.992;2022-10-31T08:19:43;11.30;99.90
16970;DHT22;8601;48.718;8.992;2022-10-31T08:22:11;11.40;99.90
16970;DHT22;8601;48.718;8.992;2022-10-31T08:24:38;11.50;99.90
16970;DHT22;8601;48.718;8.992;2022-10-31T08:27:05;11.50;99.90
16970;DHT22;8601;48.718;8.992;2022-10-31T08:29:32;11.60;99.90
16970;DHT22;8601;48.718;8.992;2022-10-31T08:31:59;11.70;99.90
16970;DHT22;8601;48.718;8.992;2022-10-31T08:34:32;11.80;99.90
16970;DHT22;8601;48.718;8.992;2022-10-31T08:36:59;11.80;99.90
16970;DHT22;8601;48.718;8.992;2022-10-31T08:39:27;11.90;99.90
16970;DHT22;8601;48.718;8.992;2022-10-31T08:41:54;12.00;99.90
16970;DHT22;8601;48.718;8.992;2022-10-31T08:44:21;12.10;99.90
16970;DHT22;8601;48.718;8.992;2022-10-31T08:46:48;12.20;99.90
16970;DHT22;8601;48.718;8.992;2022-10-31T08:49:15;12.30;99.90
16970;DHT22;8601;48.718;8.992;2022-10-31T08:51:42;12.40;99.90
16970;DHT22;8601;48.718;8.992;2022-10-31T08:54:09;12.50;99.90
16970;DHT22;8601;48.718;8.992;2022-10-31T08:56:38;12.60;99.90
16970;DHT22;8601;48.718;8.992;2022-10-31T08:59:05;12.70;99.90
16970;DHT22;8601;48.718;8.992;2022-10-31T09:01:32;12.80;99.90
16970;DHT22;8601;48.718;8.992;2022-10-31T09:04:00;12.90;99.90
16970;DHT22;8601;48.718;8.992;2022-10-31T09:06:26;13.10;99.90
16970;DHT22;8601;48.718;8.992;2022-10-31T09:08:53;13.20;99.90
16970;DHT22;8601;48.718;8.992;2022-10-31T09:11:20;13.40;99.90
16970;DHT22;8601;48.718;8.992;2022-10-31T09:13:48;13.50;99.90
16970;DHT22;8601;48.718;8.992;2022-10-31T09:16:17;13.70;99.90
16970;DHT22;8601;48.718;8.992;2022-10-31T09:18:44;13.90;99.90
16970;DHT22;8601;48.718;8.992;2022-10-31T09:21:11;14.00;99.90
16970;DHT22;8601;48.718;8.992;2022-10-31T09:23:37;14.10;99.90
16970;DHT22;8601;48.718;8.992;2022-10-31T09:26:04;14.20;99.90
16970;DHT22;8601;48.718;8.992;2022-10-31T09:28:32;14.30;99.90
16970;DHT22;8601;48.718;8.992;2022-10-31T09:31:00;14.30;99.90
16970;DHT22;8601;48.718;8.992;2022-10-31T09:33:27;14.40;99.90
16970;DHT22;8601;48.718;8.992;2022-10-31T09:35:58;14.40;99.90
16970;DHT22;8601;48.718;8.992;2022-10-31T09:38:25;14.50;99.90
16970;DHT22;8601;48.718;8.992;2022-10-31T09:40:55;14.60;99.90
16970;DHT22;8601;48.718;8.992;2022-10-31T09:43:36;14.70;99.90
16970;DHT22;8601;48.718;8.992;2022-10-31T09:46:15;14.80;99.90
16970;DHT22;8601;48.718;8.992;2022-10-31T09:48:53;15.00;99.90
16970;DHT22;8601;48.718;8.992;2022-10-31T09:51:27;15.00;99.90
16970;DHT22;8601;48.718;8.992;2022-10-31T09:53:59;15.00;99.90
16970;DHT22;8601;48.718;8.992;2022-10-31T09:56:35;15.10;99.90
16970;DHT22;8601;48.718;8.992;2022-10-31T09:59:08;15.00;99.90
16970;DHT22;8601;48.718;8.992;2022-10-31T10:01:45;15.10;99.90
16970;DHT22;8601;48.718;8.992;2022-10-31T10:04:26;15.20;99.90
16970;DHT22;8601;48.718;8.992;2022-10-31T10:06:54;15.20;99.90
16970;DHT22;8601;48.718;8.992;2022-10-31T10:09:25;15.30;99.90
16970;DHT22;8601;48.718;8.992;2022-10-31T10:12:00;15.40;99.90
16970;DHT22;8601;48.718;8.992;2022-10-31T10:14:56;15.40;99.90
16970;DHT22;8601;48.718;8.992;2022-10-31T10:17:36;16.00;99.90
16970;DHT22;8601;48.718;8.992;2022-10-31T10:20:30;16.00;99.90
16970;DHT22;8601;48.718;8.992;2022-10-31T10:23:12;16.00;99.90
16970;DHT22;8601;48.718;8.992;2022-10-31T10:25:40;16.00;99.90
16970;DHT22;8601;48.718;8.992;2022-10-31T10:28:21;16.00;99.90
16970;DHT22;8601;48.718;8.992;2022-10-31T10:30:51;16.00;99.90
16970;DHT22;8601;48.718;8.992;2022-10-31T10:33:23;16.10;99.90
16970;DHT22;8601;48.718;8.992;2022-10-31T10:35:57;16.20;99.90
16970;DHT22;8601;48.718;8.992;2022-10-31T10:38:28;16.20;99.90
16970;DHT22;8601;48.718;8.992;2022-10-31T10:40:59;16.30;99.90
16970;DHT22;8601;48.718;8.992;2022-10-31T10:43:32;16.50;99.90
16970;DHT22;8601;48.718;8.992;2022-10-31T10:46:17;16.50;99.90
16970;DHT22;8601;48.718;8.992;2022-10-31T10:49:12;16.60;99.90
16970;DHT22;8601;48.718;8.992;2022-10-31T10:51:44;16.70;99.90
16970;DHT22;8601;48.718;8.992;2022-10-31T10:54:42;16.70;99.90
16970;DHT22;8601;48.718;8.992;2022-10-31T11:00:16;16.90;99.90
16970;DHT22;8601;48.718;8.992;2022-10-31T11:02:44;17.00;99.90
16970;DHT22;8601;48.718;8.992;2022-10-31T11:05:22;17.20;99.90
16970;DHT22;8601;48.718;8.992;2022-10-31T11:07:49;17.30;99.90
16970;DHT22;8601;48.718;8.992;2022-10-31T11:10:17;17.50;99.90
16970;DHT22;8601;48.718;8.992;2022-10-31T11:12:45;17.60;99.90
16970;DHT22;8601;48.718;8.992;2022-10-31T11:15:19;17.70;99.90
16970;DHT22;8601;48.718;8.992;2022-10-31T11:17:49;17.80;99.90
16970;DHT22;8601;48.718;8.992;2022-10-31T11:20:30;17.90;99.90
16970;DHT22;8601;48.718;8.992;2022-10-31T11:23:03;18.00;99.90
16970;DHT22;8601;48.718;8.992;2022-10-31T11:25:30;18.10;99.90
16970;DHT22;8601;48.718;8.992;2022-10-31T11:28:01;18.20;99.90
16970;DHT22;8601;48.718;8.992;2022-10-31T11:30:36;18.30;99.90
16970;DHT22;8601;48.718;8.992;2022-10-31T11:33:16;18.30;99.90
16970;DHT22;8601;48.718;8.992;2022-10-31T11:35:46;18.30;99.90
16970;DHT22;8601;48.718;8.992;2022-10-31T11:38:17;18.40;99.90
16970;DHT22;8601;48.718;8.992;2022-10-31T11:40:52;18.30;99.90
16970;DHT22;8601;48.718;8.992;2022-10-31T11:43:20;18.30;99.90
16970;DHT22;8601;48.718;8.992;2022-10-31T11:45:47;18.30;99.90
16970;DHT22;8601;48.718;8.992;2022-10-31T11:48:16;18.30;99.90
16970;DHT22;8601;48.718;8.992;2022-10-31T11:50:50;18.30;99.60
16970;DHT22;8601;48.718;8.992;2022-10-31T11:53:20;18.30;99.90
16970;DHT22;8601;48.718;8.992;2022-10-31T11:56:01;18.30;98.80
16970;DHT22;8601;48.718;8.992;2022-10-31T11:58:29;18.20;99.30
16970;DHT22;8601;48.718;8.992;2022-10-31T12:00:57;18.20;98.90
16970;DHT22;8601;48.718;8.992;2022-10-31T12:03:32;18.30;99.90
16970;DHT22;8601;48.718;8.992;2022-10-31T12:06:22;18.30;99.90
16970;DHT22;8601;48.718;8.992;2022-10-31T12:08:50;18.30;99.90
16970;DHT22;8601;48.718;8.992;2022-10-31T12:11:36;18.30;99.90
16970;DHT22;8601;48.718;8.992;2022-10-31T12:14:16;18.40;99.90
16970;DHT22;8601;48.718;8.992;2022-10-31T12:16:50;18.30;99.90
16970;DHT22;8601;48.718;8.992;2022-10-31T12:19:28;18.40;99.90
16970;DHT22;8601;48.718;8.992;2022-10-31T12:22:05;18.40;99.90
16970;DHT22;8601;48.718;8.992;2022-10-31T12:24:49;18.40;99.90
16970;DHT22;8601;48.718;8.992;2022-10-31T12:27:29;18.20;99.90
16970;DHT22;8601;48.718;8.992;2022-10-31T12:30:15;18.30;99.90
16970;DHT22;8601;48.718;8.992;2022-10-31T12:32:56;18.20;99.90
16970;DHT22;8601;48.718;8.992;2022-10-31T12:35:40;18.10;99.90
16970;DHT22;8601;48.718;8.992;2022-10-31T12:38:32;18.10;99.90
16970;DHT22;8601;48.718;8.992;2022-10-31T12:41:17;18.00;99.90
16970;DHT22;8601;48.718;8.992;2022-10-31T12:43:52;17.90;99.90
16970;DHT22;8601;48.718;8.992;2022-10-31T12:46:29;17.90;99.90
16970;DHT22;8601;48.718;8.992;2022-10-31T12:49:17;17.90;99.90
16970;DHT22;8601;48.718;8.992;2022-10-31T12:51:53;17.90;99.90
16970;DHT22;8601;48.718;8.992;2022-10-31T12:54:55;17.80;99.90
16970;DHT22;8601;48.718;8.992;2022-10-31T12:57:31;17.80;99.90
16970;DHT22;8601;48.718;8.992;2022-10-31T13:00:02;17.80;99.90
16970;DHT22;8601;48.718;8.992;2022-10-31T13:02:35;17.90;99.90
16970;DHT22;8601;48.718;8.992;2022-10-31T13:05:11;17.90;99.90
16970;DHT22;8601;48.718;8.992;2022-10-31T13:08:00;17.80;99.90
16970;DHT22;8601;48.718;8.992;2022-10-31T13:10:35;17.90;99.90
16970;DHT22;8601;48.718;8.992;2022-10-31T13:13:19;17.80;99.90
16970;DHT22;8601;48.718;8.992;2022-10-31T13:15:57;17.80;99.90
16970;DHT22;8601;48.718;8.992;2022-10-31T13:18:29;17.80;99.90
16970;DHT22;8601;48.718;8.992;2022-10-31T13:20:59;17.90;99.90
16970;DHT22;8601;48.718;8.992;2022-10-31T13:23:30;17.90;99.90
16970;DHT22;8601;48.718;8.992;2022-10-31T13:26:09;18.00;99.90
16970;DHT22;8601;48.718;8.992;2022-10-31T13:28:41;18.10;99.90
16970;DHT22;8601;48.718;8.992;2022-10-31T13:31:11;18.30;99.90
16970;DHT22;8601;48.718;8.992;2022-10-31T13:33:40;18.50;99.90
16970;DHT22;8601;48.718;8.992;2022-10-31T13:36:20;18.50;99.90
16970;DHT22;8601;48.718;8.992;2022-10-31T13:38:52;18.70;99.90
16970;DHT22;8601;48.718;8.992;2022-10-31T13:41:31;18.70;99.90
16970;DHT22;8601;48.718;8.992;2022-10-31T13:44:03;18.80;99.90
16970;DHT22;8601;48.718;8.992;2022-10-31T13:46:38;18.70;99.90
16970;DHT22;8601;48.718;8.992;2022-10-31T13:49:24;18.70;99.90
16970;DHT22;8601;48.718;8.992;2022-10-31T13:51:52;18.70;99.90
16970;DHT22;8601;48.718;8.992;2022-10-31T13:54:30;18.60;99.90
16970;DHT22;8601;48.718;8.992;2022-10-31T13:56:59;18.60;99.90
16970;DHT22;8601;48.718;8.992;2022-10-31T13:59:27;18.60;99.70
16970;DHT22;8601;48.718;8.992;2022-10-31T14:01:56;18.60;99.90
16970;DHT22;8601;48.718;8.992;2022-10-31T14:04:24;18.50;99.90
16970;DHT22;8601;48.718;8.992;2022-10-31T14:07:05;18.50;99.90
16970;DHT22;8601;48.718;8.992;2022-10-31T14:09:34;18.50;99.90
16970;DHT22;8601;48.718;8.992;2022-10-31T14:12:06;18.50;99.90
16970;DHT22;8601;48.718;8.992;2022-10-31T14:14:51;18.40;99.90
16970;DHT22;8601;48.718;8.992;2022-10-31T14:17:22;18.40;99.90
16970;DHT22;8601;48.718;8.992;2022-10-31T14:20:02;18.40;99.90
16970;DHT22;8601;48.718;8.992;2022-10-31T14:22:46;18.40;99.90
16970;DHT22;8601;48.718;8.992;2022-10-31T14:25:28;18.30;99.90
16970;DHT22;8601;48.718;8.992;2022-10-31T14:27:57;18.50;99.90
16970;DHT22;8601;48.718;8.992;2022-10-31T14:30:26;18.60;99.90
16970;DHT22;8601;48.718;8.992;2022-10-31T14:32:56;18.50;99.90
16970;DHT22;8601;48.718;8.992;2022-10-31T14:35:27;18.40;99.90
16970;DHT22;8601;48.718;8.992;2022-10-31T14:38:18;18.40;99.90
16970;DHT22;8601;48.718;8.992;2022-10-31T14:41:06;18.50;99.90
16970;DHT22;8601;48.718;8.992;2022-10-31T14:43:52;18.70;99.90
16970;DHT22;8601;48.718;8.992;2022-10-31T14:46:37;18.90;99.90
16970;DHT22;8601;48.718;8.992;2022-10-31T14:49:21;19.00;99.90
16970;DHT22;8601;48.718;8.992;2022-10-31T14:51:51;19.00;99.90
16970;DHT22;8601;48.718;8.992;2022-10-31T14:54:23;18.70;99.90
16970;DHT22;8601;48.718;8.992;2022-10-31T14:56:53;18.50;99.90
16970;DHT22;8601;48.718;8.992;2022-10-31T14:59:32;18.40;99.90
16970;DHT22;8601;48.718;8.992;2022-10-31T15:02:07;18.20;99.90
16970;DHT22;8601;48.718;8.992;2022-10-31T15:04:36;18.10;99.90
16970;DHT22;8601;48.718;8.992;2022-10-31T15:07:10;18.10;99.90
16970;DHT22;8601;48.718;8.992;2022-10-31T15:09:39;17.90;99.90
16970;DHT22;8601;48.718;8.992;2022-10-31T15:12:23;17.70;99.90
16970;DHT22;8601;48.718;8.992;2022-10-31T15:14:54;17.50;99.90
16970;DHT22;8601;48.718;8.992;2022-10-31T15:17:22;17.40;99.90
16970;DHT22;8601;48.718;8.992;2022-10-31T15:19:50;17.20;99.90
16970;DHT22;8601;48.718;8.992;2022-10-31T15:22:34;17.10;99.90
16970;DHT22;8601;48.718;8.992;2022-10-31T15:25:10;17.00;99.90
16970;DHT22;8601;48.718;8.992;2022-10-31T15:27:43;16.90;99.90
16970;DHT22;8601;48.718;8.992;2022-10-31T15:30:18;16.80;99.90
16970;DHT22;8601;48.718;8.992;2022-10-31T15:32:46;16.70;99.90
16970;DHT22;8601;48.718;8.992;2022-10-31T15:35:25;16.50;99.90
16970;DHT22;8601;48.718;8.992;2022-10-31T15:37:52;16.40;99.90
16970;DHT22;8601;48.718;8.992;2022-10-31T15:40:22;16.40;99.90
16970;DHT22;8601;48.718;8.992;2022-10-31T15:42:51;16.30;99.90
16970;DHT22;8601;48.718;8.992;2022-10-31T15:45:23;16.30;99.90
16970;DHT22;8601;48.718;8.992;2022-10-31T15:47:55;16.20;99.90
16970;DHT22;8601;48.718;8.992;2022-10-31T15:50:29;16.10;99.90
16970;DHT22;8601;48.718;8.992;2022-10-31T15:52:57;16.20;99.90
16970;DHT22;8601;48.718;8.992;2022-10-31T15:55:26;16.20;99.90
16970;DHT22;8601;48.718;8.992;2022-10-31T15:57:56;16.20;99.90
16970;DHT22;8601;48.718;8.992;2022-10-31T16:00:27;16.20;99.90
16970;DHT22;8601;48.718;8.992;2022-10-31T16:03:07;16.10;99.90
16970;DHT22;8601;48.718;8.992;2022-10-31T16:05:38;16.10;99.90
16970;DHT22;8601;48.718;8.992;2022-10-31T16:08:25;16.00;99.90
16970;DHT22;8601;48.718;8.992;2022-10-31T16:10:56;16.00;99.90
16970;DHT22;8601;48.718;8.992;2022-10-31T16:13:26;15.90;99.90
16970;DHT22;8601;48.718;8.992;2022-10-31T16:15:57;15.90;99.90
16970;DHT22;8601;48.718;8.992;2022-10-31T16:18:25;15.70;99.90
16970;DHT22;8601;48.718;8.992;2022-10-31T16:20:53;15.70;99.90
16970;DHT22;8601;48.718;8.992;2022-10-31T16:23:22;15.60;99.90
16970;DHT22;8601;48.718;8.992;2022-10-31T16:25:51;15.50;99.90
16970;DHT22;8601;48.718;8.992;2022-10-31T16:28:20;15.40;99.90
16970;DHT22;8601;48.718;8.992;2022-10-31T16:30:49;15.30;99.90